createdAt,value
2023-10-01T00:00:44.025Z,77.64
2023-10-01T00:01:47.642Z,77.46
2023-10-01T00:02:50.701Z,77.03
2023-10-01T00:03:55.807Z,76.77
2023-10-01T00:04:59.100Z,76.16
2023-10-01T00:06:01.959Z,76.19
2023-10-01T00:07:05.177Z,76.44
2023-10-01T00:08:09.937Z,76.32
2023-10-01T00:09:12.627Z,75.96
2023-10-01T00:10:15.569Z,76.00
2023-10-01T00:11:19.621Z,75.94
2023-10-01T00:12:24.132Z,75.72
2023-10-01T00:13:27.937Z,75.52
2023-10-01T00:14:30.923Z,75.61
2023-10-01T00:15:33.860Z,75.70
2023-10-01T00:16:40.009Z,75.27
2023-10-01T00:17:47.508Z,75.25
2023-10-01T00:18:50.581Z,75.44
2023-10-01T00:19:53.497Z,75.59
2023-10-01T00:20:56.741Z,75.74
2023-10-01T00:22:01.558Z,75.82
2023-10-01T00:23:05.480Z,76.11
2023-10-01T00:24:08.712Z,76.30
2023-10-01T00:25:11.526Z,76.71
2023-10-01T00:26:14.493Z,77.10
2023-10-01T00:27:18.813Z,77.23
2023-10-01T00:28:22.059Z,77.31
2023-10-01T00:29:25.117Z,77.15
2023-10-01T00:30:34.701Z,77.61
2023-10-01T00:31:38.551Z,77.82
2023-10-01T00:32:41.822Z,78.22
2023-10-01T00:33:50.897Z,78.53
2023-10-01T00:34:56.835Z,78.42
2023-10-01T00:35:59.732Z,78.64
2023-10-01T00:37:03.849Z,79.11
2023-10-01T00:38:10.997Z,79.89
2023-10-01T00:39:14.446Z,80.23
2023-10-01T00:40:18.551Z,80.31
2023-10-01T00:41:21.466Z,80.39
2023-10-01T00:42:27.424Z,80.68
2023-10-01T00:43:31.335Z,80.80
2023-10-01T00:44:37.768Z,80.65
2023-10-01T00:45:40.714Z,80.88
2023-10-01T00:46:44.725Z,80.77
2023-10-01T00:47:48.020Z,80.70
2023-10-01T00:48:50.804Z,80.13
2023-10-01T00:49:55.746Z,80.54
2023-10-01T00:51:00.478Z,80.34
2023-10-01T00:52:04.070Z,80.39
2023-10-01T00:53:09.035Z,80.01
2023-10-01T00:54:11.989Z,79.90
2023-10-01T00:55:15.552Z,79.99
2023-10-01T00:56:21.678Z,79.74
2023-10-01T00:57:24.702Z,79.62
2023-10-01T00:58:27.638Z,79.73
2023-10-01T00:59:34.190Z,79.85
2023-10-01T01:00:38.324Z,80.06
2023-10-01T01:01:41.302Z,80.18
2023-10-01T01:03:10.274Z,80.53
2023-10-01T01:04:20.983Z,80.47
2023-10-01T01:05:26.014Z,80.04
2023-10-01T01:06:38.007Z,79.42
2023-10-01T01:07:41.982Z,79.16
2023-10-01T01:08:53.882Z,79.35
2023-10-01T01:09:56.810Z,79.71
2023-10-01T01:11:02.518Z,79.46
2023-10-01T01:12:06.852Z,79.50
2023-10-01T01:13:18.139Z,78.20
2023-10-01T01:14:22.502Z,77.99
2023-10-01T01:15:25.094Z,77.80
2023-10-01T01:16:29.453Z,77.83
2023-10-01T01:17:32.814Z,77.71
2023-10-01T01:18:38.286Z,77.71
2023-10-01T01:19:43.745Z,78.04
2023-10-01T01:20:48.396Z,77.97
2023-10-01T01:21:51.900Z,78.16
2023-10-01T01:22:55.879Z,78.39
2023-10-01T01:23:59.197Z,78.61
2023-10-01T01:25:02.249Z,78.86
2023-10-01T01:26:05.216Z,78.93
2023-10-01T01:27:08.027Z,78.78
2023-10-01T01:28:14.027Z,78.74
2023-10-01T01:29:30.428Z,78.60
2023-10-01T01:30:34.648Z,78.69
2023-10-01T01:31:47.164Z,79.10
2023-10-01T01:32:54.646Z,79.22
2023-10-01T01:33:58.840Z,78.66
2023-10-01T01:35:03.600Z,78.42
2023-10-01T01:36:07.159Z,78.21
2023-10-01T01:37:10.377Z,78.33
2023-10-01T01:38:13.849Z,78.42
2023-10-01T01:39:52.679Z,78.22
2023-10-01T01:40:55.688Z,77.98
2023-10-01T01:41:58.625Z,77.94
2023-10-01T01:43:05.572Z,77.53
2023-10-01T01:44:09.192Z,77.41
2023-10-01T01:45:26.484Z,77.52
2023-10-01T01:46:29.389Z,77.57
2023-10-01T01:47:32.146Z,77.10
2023-10-01T01:48:38.943Z,76.85
2023-10-01T01:49:43.576Z,76.21
2023-10-01T01:50:46.740Z,75.85
2023-10-01T01:52:00.890Z,75.95
2023-10-01T01:53:05.395Z,75.83
2023-10-01T01:54:09.972Z,75.90
2023-10-01T01:55:24.603Z,76.01
2023-10-01T01:56:28.833Z,75.82
2023-10-01T01:57:31.729Z,75.95
2023-10-01T01:58:34.644Z,75.78
2023-10-01T01:59:39.385Z,75.68
2023-10-01T02:01:02.822Z,75.88
2023-10-01T02:02:08.578Z,75.98
2023-10-01T02:03:16.179Z,75.64
2023-10-01T02:04:19.572Z,75.57
2023-10-01T02:05:29.298Z,75.64
2023-10-01T02:06:32.456Z,75.14
2023-10-01T02:07:35.639Z,75.16
2023-10-01T02:08:51.600Z,75.18
2023-10-01T02:09:54.674Z,75.07
2023-10-01T02:10:57.635Z,74.69
2023-10-01T02:12:00.575Z,74.73
2023-10-01T02:13:06.295Z,74.94
2023-10-01T02:14:29.165Z,74.92
2023-10-01T02:15:33.427Z,74.95
2023-10-01T02:16:39.606Z,74.25
2023-10-01T02:17:42.767Z,74.40
2023-10-01T02:18:58.108Z,74.14
2023-10-01T02:20:02.349Z,74.21
2023-10-01T02:21:17.597Z,74.10
2023-10-01T02:22:22.112Z,74.05
2023-10-01T02:23:33.731Z,73.85
2023-10-01T02:24:56.391Z,73.65
2023-10-01T02:26:01.856Z,73.42
2023-10-01T02:27:05.442Z,73.75
2023-10-01T02:28:14.297Z,74.09
2023-10-01T02:29:17.698Z,74.39
2023-10-01T02:30:25.326Z,74.41
2023-10-01T02:31:28.555Z,74.36
2023-10-01T02:32:31.638Z,74.53
2023-10-01T02:33:56.851Z,74.92
2023-10-01T02:35:00.273Z,74.90
2023-10-01T02:36:03.867Z,75.15
2023-10-01T02:37:08.638Z,75.15
2023-10-01T02:38:31.176Z,74.97
2023-10-01T02:39:33.866Z,74.99
2023-10-01T02:40:41.429Z,74.84
2023-10-01T02:42:04.394Z,75.05
2023-10-01T02:43:08.948Z,75.29
2023-10-01T02:44:12.499Z,75.17
2023-10-01T02:45:33.704Z,74.47
2023-10-01T02:46:36.637Z,74.45
2023-10-01T02:47:39.855Z,74.56
2023-10-01T02:48:43.882Z,74.51
2023-10-01T02:49:54.978Z,74.53
2023-10-01T02:50:58.277Z,74.69
2023-10-01T02:52:04.869Z,74.87
2023-10-01T02:53:09.421Z,75.01
2023-10-01T02:54:12.571Z,75.46
2023-10-01T02:55:19.356Z,75.28
2023-10-01T02:56:27.034Z,74.86
2023-10-01T02:57:34.902Z,74.76
2023-10-01T02:58:38.670Z,74.86
2023-10-01T03:00:01.474Z,74.91
2023-10-01T03:01:15.295Z,75.21
2023-10-01T03:02:21.955Z,75.28
2023-10-01T03:03:34.590Z,74.93
2023-10-01T03:04:37.957Z,74.64
2023-10-01T03:05:43.386Z,74.47
2023-10-01T03:06:57.048Z,74.41
2023-10-01T03:08:20.273Z,74.52
2023-10-01T03:09:38.043Z,74.20
2023-10-01T03:10:41.865Z,73.68
2023-10-01T03:11:46.078Z,73.36
2023-10-01T03:12:51.165Z,73.60
2023-10-01T03:14:05.145Z,73.81
2023-10-01T03:15:14.000Z,73.89
2023-10-01T03:16:35.760Z,74.06
2023-10-01T03:17:52.909Z,73.90
2023-10-01T03:18:56.416Z,73.73
2023-10-01T03:20:13.689Z,73.48
2023-10-01T03:21:20.804Z,73.58
2023-10-01T03:22:33.124Z,73.74
2023-10-01T03:23:36.181Z,73.51
2023-10-01T03:24:46.212Z,73.58
2023-10-01T03:26:02.098Z,73.75
2023-10-01T03:27:27.845Z,74.04
2023-10-01T03:28:55.737Z,74.22
2023-10-01T03:30:18.581Z,74.04
2023-10-01T03:31:21.455Z,73.99
2023-10-01T03:32:30.535Z,74.15
2023-10-01T03:33:40.978Z,74.13
2023-10-01T03:34:45.222Z,74.03
2023-10-01T03:35:49.376Z,74.13
2023-10-01T03:36:53.704Z,74.24
2023-10-01T03:38:11.803Z,74.52
2023-10-01T03:39:27.252Z,74.64
2023-10-01T03:40:36.980Z,74.60
2023-10-01T03:42:15.354Z,74.84
2023-10-01T03:43:20.178Z,74.95
2023-10-01T03:45:00.898Z,74.95
2023-10-01T03:46:15.030Z,75.18
2023-10-01T03:47:20.683Z,75.36
2023-10-01T03:48:23.371Z,75.51
2023-10-01T03:49:35.249Z,75.56
2023-10-01T03:50:47.462Z,75.59
2023-10-01T03:52:00.299Z,75.79
2023-10-01T03:53:12.363Z,75.73
2023-10-01T03:54:15.920Z,75.87
2023-10-01T03:55:29.273Z,75.85
2023-10-01T03:56:34.220Z,75.84
2023-10-01T03:57:53.836Z,75.80
2023-10-01T03:58:57.472Z,75.84
2023-10-01T04:00:12.063Z,75.76
2023-10-01T04:01:28.012Z,75.68
2023-10-01T04:02:49.417Z,75.76
2023-10-01T04:03:52.642Z,75.69
2023-10-01T04:04:59.854Z,75.69
2023-10-01T04:06:06.550Z,75.43
2023-10-01T04:07:12.646Z,75.14
2023-10-01T04:08:16.494Z,75.01
2023-10-01T04:09:20.428Z,74.98
2023-10-01T04:10:29.152Z,74.85
2023-10-01T04:11:51.289Z,75.00
2023-10-01T04:12:56.388Z,74.80
2023-10-01T04:14:09.311Z,74.50
2023-10-01T04:15:28.721Z,74.46
2023-10-01T04:16:36.340Z,74.19
2023-10-01T04:17:59.385Z,74.32
2023-10-01T04:19:02.647Z,74.14
2023-10-01T04:20:14.836Z,73.79
2023-10-01T04:21:26.757Z,73.61
2023-10-01T04:22:31.277Z,73.42
2023-10-01T04:23:36.672Z,73.37
2023-10-01T04:24:39.629Z,73.36
2023-10-01T04:25:44.732Z,73.14
2023-10-01T04:26:48.302Z,73.15
2023-10-01T04:27:52.372Z,73.09
2023-10-01T04:29:00.682Z,72.98
2023-10-01T04:30:09.504Z,72.84
2023-10-01T04:31:16.599Z,72.78
2023-10-01T04:32:20.129Z,72.87
2023-10-01T04:33:24.653Z,73.13
2023-10-01T04:34:28.329Z,73.06
2023-10-01T04:35:31.920Z,73.19
2023-10-01T04:36:34.918Z,73.10
2023-10-01T04:37:42.383Z,72.85
2023-10-01T04:38:47.315Z,72.71
2023-10-01T04:39:49.981Z,72.65
2023-10-01T04:40:53.575Z,72.60
2023-10-01T04:42:00.814Z,72.52
2023-10-01T04:43:10.436Z,72.30
2023-10-01T04:44:21.174Z,72.44
2023-10-01T04:45:24.464Z,72.55
2023-10-01T04:46:31.789Z,72.48
2023-10-01T04:47:42.316Z,72.41
2023-10-01T04:48:46.476Z,72.11
2023-10-01T04:49:53.363Z,72.08
2023-10-01T04:50:56.710Z,71.92
2023-10-01T04:52:02.508Z,71.89
2023-10-01T04:53:08.714Z,71.72
2023-10-01T04:54:23.010Z,72.01
2023-10-01T04:55:29.709Z,71.82
2023-10-01T04:56:32.382Z,71.69
2023-10-01T04:57:37.929Z,71.73
2023-10-01T04:58:42.385Z,71.51
2023-10-01T04:59:59.106Z,71.53
2023-10-01T05:01:06.587Z,71.50
2023-10-01T05:02:23.076Z,71.41
2023-10-01T05:03:47.040Z,71.56
2023-10-01T05:04:49.753Z,71.47
2023-10-01T05:05:52.621Z,71.15
2023-10-01T05:07:01.965Z,71.30
2023-10-01T05:08:05.496Z,71.23
2023-10-01T05:09:09.388Z,71.12
2023-10-01T05:10:13.489Z,70.99
2023-10-01T05:11:22.490Z,70.92
2023-10-01T05:12:32.280Z,70.66
2023-10-01T05:13:36.342Z,70.74
2023-10-01T05:14:59.537Z,70.99
2023-10-01T05:16:07.625Z,71.12
2023-10-01T05:17:10.671Z,70.94
2023-10-01T05:18:13.708Z,71.01
2023-10-01T05:19:20.133Z,71.24
2023-10-01T05:20:26.717Z,71.86
2023-10-01T05:21:29.910Z,71.69
2023-10-01T05:22:47.916Z,71.54
2023-10-01T05:23:52.196Z,71.54
2023-10-01T05:24:54.890Z,71.78
2023-10-01T05:25:58.465Z,71.64
2023-10-01T05:27:10.573Z,71.94
2023-10-01T05:28:33.434Z,72.37
2023-10-01T05:29:40.383Z,72.27
2023-10-01T05:30:44.186Z,72.52
2023-10-01T05:31:47.369Z,72.51
2023-10-01T05:32:52.791Z,72.61
2023-10-01T05:33:59.784Z,72.74
2023-10-01T05:35:16.251Z,72.71
2023-10-01T05:36:20.263Z,72.83
2023-10-01T05:37:27.573Z,72.97
2023-10-01T05:38:35.044Z,72.99
2023-10-01T05:41:10.674Z,72.54
2023-10-01T05:42:16.108Z,73.07
2023-10-01T05:43:20.044Z,73.02
2023-10-01T05:44:22.956Z,73.00
2023-10-01T05:45:38.481Z,73.13
2023-10-01T05:46:41.808Z,73.09
2023-10-01T05:47:56.174Z,73.10
2023-10-01T05:49:02.358Z,73.18
2023-10-01T05:50:10.067Z,73.20
2023-10-01T05:51:16.249Z,73.14
2023-10-01T05:52:19.211Z,73.20
2023-10-01T05:53:22.190Z,73.35
2023-10-01T05:54:25.913Z,73.25
2023-10-01T05:55:29.562Z,73.20
2023-10-01T05:56:38.506Z,73.06
2023-10-01T05:57:41.616Z,73.01
2023-10-01T05:58:44.653Z,73.06
2023-10-01T05:59:57.834Z,72.99
2023-10-01T06:01:15.138Z,73.04
2023-10-01T06:02:38.795Z,72.72
2023-10-01T06:03:43.012Z,72.37
2023-10-01T06:04:45.705Z,71.95
2023-10-01T06:05:51.533Z,71.70
2023-10-01T06:06:54.557Z,71.59
2023-10-01T06:07:57.466Z,71.39
2023-10-01T06:09:00.888Z,71.22
2023-10-01T06:10:11.646Z,70.48
2023-10-01T06:11:17.189Z,70.26
2023-10-01T06:12:20.344Z,69.64
2023-10-01T06:13:25.654Z,69.35
2023-10-01T06:14:47.089Z,69.04
2023-10-01T06:15:50.137Z,69.15
2023-10-01T06:16:53.209Z,68.90
2023-10-01T06:17:57.247Z,68.42
2023-10-01T06:19:01.597Z,67.85
2023-10-01T06:20:24.926Z,68.08
2023-10-01T06:21:34.378Z,68.63
2023-10-01T06:22:38.411Z,68.68
2023-10-01T06:23:50.995Z,68.84
2023-10-01T06:24:55.865Z,68.58
2023-10-01T06:25:59.872Z,68.58
2023-10-01T06:27:03.254Z,69.17
2023-10-01T06:28:11.968Z,69.06
2023-10-01T06:29:15.433Z,68.71
2023-10-01T06:30:18.881Z,68.82
2023-10-01T06:31:22.135Z,69.76
2023-10-01T06:32:25.271Z,68.08
2023-10-01T06:33:30.755Z,67.80
2023-10-01T06:34:34.015Z,67.37
2023-10-01T06:35:39.673Z,66.95
2023-10-01T06:36:44.357Z,66.45
2023-10-01T06:37:51.505Z,66.66
2023-10-01T06:38:56.790Z,66.58
2023-10-01T06:40:01.921Z,66.87
2023-10-01T06:41:07.630Z,66.27
2023-10-01T06:42:20.491Z,66.32
2023-10-01T06:43:24.346Z,66.63
2023-10-01T06:44:27.765Z,65.65
2023-10-01T06:45:44.013Z,64.76
2023-10-01T06:46:49.956Z,63.88
2023-10-01T06:47:53.000Z,63.52
2023-10-01T06:49:00.504Z,63.39
2023-10-01T06:50:06.542Z,62.65
2023-10-01T06:51:09.935Z,62.24
2023-10-01T06:52:13.919Z,61.19
2023-10-01T06:53:16.529Z,60.67
2023-10-01T06:54:19.725Z,60.51
2023-10-01T06:55:30.153Z,59.87
2023-10-01T06:56:37.576Z,59.74
2023-10-01T06:57:40.887Z,59.22
2023-10-01T06:59:02.950Z,58.69
2023-10-01T07:00:14.573Z,58.60
2023-10-01T07:01:35.692Z,57.79
2023-10-01T07:02:39.726Z,57.36
2023-10-01T07:03:43.080Z,57.31
2023-10-01T07:05:11.286Z,56.94
2023-10-01T07:06:16.365Z,56.73
2023-10-01T07:07:21.663Z,57.44
2023-10-01T07:08:38.704Z,56.75
2023-10-01T07:09:42.784Z,56.48
2023-10-01T07:10:52.487Z,56.83
2023-10-01T07:11:57.724Z,56.85
2023-10-01T07:13:06.418Z,56.58
2023-10-01T07:14:10.930Z,56.26
2023-10-01T07:15:14.135Z,56.27
2023-10-01T07:16:36.798Z,56.56
2023-10-01T07:17:40.936Z,57.08
2023-10-01T07:18:45.259Z,55.81
2023-10-01T07:20:00.962Z,55.49
2023-10-01T07:21:10.529Z,55.55
2023-10-01T07:22:16.175Z,55.85
2023-10-01T07:23:23.438Z,56.23
2023-10-01T07:24:32.203Z,56.16
2023-10-01T07:25:44.354Z,55.83
2023-10-01T07:26:49.406Z,55.55
2023-10-01T07:27:52.354Z,55.40
2023-10-01T07:29:00.865Z,55.15
2023-10-01T07:30:08.177Z,54.99
2023-10-01T07:31:10.912Z,54.74
2023-10-01T07:32:14.435Z,55.54
2023-10-01T07:33:22.417Z,54.37
2023-10-01T07:34:28.257Z,54.01
2023-10-01T07:35:31.000Z,53.80
2023-10-01T07:36:33.842Z,54.59
2023-10-01T07:37:38.920Z,53.91
2023-10-01T07:38:53.837Z,53.41
2023-10-01T07:40:01.260Z,53.43
2023-10-01T07:41:12.523Z,53.58
2023-10-01T07:42:18.659Z,53.71
2023-10-01T07:43:22.940Z,54.35
2023-10-01T07:44:28.531Z,53.31
2023-10-01T07:45:31.904Z,52.50
2023-10-01T07:46:34.666Z,52.05
2023-10-01T07:47:39.382Z,52.43
2023-10-01T07:48:48.877Z,51.87
2023-10-01T07:49:51.737Z,51.33
2023-10-01T07:50:56.948Z,51.23
2023-10-01T07:52:02.326Z,51.75
2023-10-01T07:53:05.391Z,51.73
2023-10-01T07:54:11.545Z,51.49
2023-10-01T07:55:30.808Z,51.32
2023-10-01T07:56:34.368Z,50.84
2023-10-01T07:57:48.326Z,50.96
2023-10-01T07:59:12.885Z,51.13
2023-10-01T08:00:30.020Z,51.31
2023-10-01T08:01:43.933Z,51.97
2023-10-01T08:03:05.897Z,52.33
2023-10-01T08:04:32.389Z,52.80
2023-10-01T08:05:39.972Z,51.96
2023-10-01T08:06:45.790Z,52.29
2023-10-01T08:07:48.791Z,52.45
2023-10-01T08:08:58.859Z,52.69
2023-10-01T08:10:05.965Z,52.26
2023-10-01T08:11:28.914Z,53.37
2023-10-01T08:12:41.372Z,53.17
2023-10-01T08:13:44.278Z,52.99
2023-10-01T08:15:07.546Z,52.92
2023-10-01T08:16:14.836Z,53.33
2023-10-01T08:17:21.907Z,53.86
2023-10-01T08:18:36.235Z,55.05
2023-10-01T08:19:46.399Z,54.36
2023-10-01T08:21:00.136Z,54.51
2023-10-01T08:22:14.908Z,54.44
2023-10-01T08:23:24.541Z,53.69
2023-10-01T08:24:37.204Z,53.28
2023-10-01T08:25:43.953Z,53.16
2023-10-01T08:27:13.718Z,52.37
2023-10-01T08:28:16.634Z,51.89
2023-10-01T08:29:19.338Z,51.20
2023-10-01T08:30:40.155Z,50.52
2023-10-01T08:31:50.066Z,49.92
2023-10-01T08:33:13.018Z,50.20
2023-10-01T08:34:45.733Z,50.86
2023-10-01T08:35:58.258Z,50.75
2023-10-01T08:37:10.582Z,49.21
2023-10-01T08:38:17.051Z,49.09
2023-10-01T08:39:35.104Z,49.58
2023-10-01T08:40:42.461Z,50.29
2023-10-01T08:41:52.285Z,50.11
2023-10-01T08:43:00.048Z,48.99
2023-10-01T08:44:11.220Z,48.37
2023-10-01T08:45:18.446Z,48.93
2023-10-01T08:46:33.392Z,48.24
2023-10-01T08:47:38.733Z,48.30
2023-10-01T08:48:44.259Z,48.69
2023-10-01T08:49:47.782Z,48.61
2023-10-01T08:50:53.100Z,48.74
2023-10-01T08:52:16.235Z,48.32
2023-10-01T08:53:19.513Z,48.03
2023-10-01T08:54:26.321Z,48.38
2023-10-01T08:55:41.592Z,48.64
2023-10-01T08:56:46.403Z,49.01
2023-10-01T08:57:54.089Z,49.63
2023-10-01T08:59:01.149Z,49.41
2023-10-01T09:00:16.600Z,49.37
2023-10-01T09:01:22.537Z,49.53
2023-10-01T09:02:25.710Z,49.14
2023-10-01T09:03:30.843Z,49.74
2023-10-01T09:04:46.997Z,49.87
2023-10-01T09:06:02.718Z,49.84
2023-10-01T09:07:06.720Z,49.29
2023-10-01T09:08:27.782Z,49.27
2023-10-01T09:09:53.245Z,49.78
2023-10-01T09:10:56.528Z,49.20
2023-10-01T09:12:00.150Z,49.05
2023-10-01T09:13:05.303Z,49.25
2023-10-01T09:14:22.334Z,49.31
2023-10-01T09:15:30.271Z,49.86
2023-10-01T09:16:34.145Z,50.11
2023-10-01T09:17:58.107Z,50.08
2023-10-01T09:19:06.394Z,50.52
2023-10-01T09:20:10.418Z,50.13
2023-10-01T09:21:29.967Z,48.85
2023-10-01T09:22:33.149Z,48.62
2023-10-01T09:23:59.959Z,48.47
2023-10-01T09:25:22.453Z,48.70
2023-10-01T09:26:46.986Z,49.50
2023-10-01T09:28:20.998Z,49.25
2023-10-01T09:29:25.298Z,50.56
2023-10-01T09:30:28.307Z,49.66
2023-10-01T09:31:32.071Z,49.63
2023-10-01T09:32:53.964Z,49.68
2023-10-01T09:34:30.817Z,50.25
2023-10-01T09:36:04.025Z,49.54
2023-10-01T09:37:34.435Z,49.38
2023-10-01T09:38:59.411Z,50.51
2023-10-01T09:40:15.252Z,49.25
2023-10-01T09:41:29.083Z,49.34
2023-10-01T09:42:45.851Z,49.48
2023-10-01T09:43:50.816Z,48.45
2023-10-01T09:44:55.137Z,48.27
2023-10-01T09:46:02.325Z,48.43
2023-10-01T09:47:11.820Z,47.03
2023-10-01T09:48:37.593Z,46.74
2023-10-01T09:49:41.720Z,46.79
2023-10-01T09:50:45.106Z,47.19
2023-10-01T09:51:54.053Z,46.39
2023-10-01T09:53:01.236Z,46.88
2023-10-01T09:54:05.830Z,46.44
2023-10-01T09:55:12.212Z,46.49
2023-10-01T09:56:30.394Z,46.61
2023-10-01T09:57:38.502Z,46.08
2023-10-01T09:58:47.953Z,45.80
2023-10-01T09:59:52.393Z,45.71
2023-10-01T10:01:00.445Z,45.95
2023-10-01T10:02:05.544Z,46.12
2023-10-01T10:03:12.862Z,45.85
2023-10-01T10:04:21.937Z,46.17
2023-10-01T10:05:27.880Z,47.15
2023-10-01T10:06:34.134Z,47.93
2023-10-01T10:07:42.325Z,47.31
2023-10-01T10:08:46.175Z,46.84
2023-10-01T10:09:49.170Z,46.84
2023-10-01T10:10:57.024Z,47.33
2023-10-01T10:12:03.657Z,47.64
2023-10-01T10:13:48.046Z,48.50
2023-10-01T10:14:58.240Z,47.95
2023-10-01T10:16:02.194Z,47.49
2023-10-01T10:17:20.235Z,48.00
2023-10-01T10:18:24.846Z,47.19
2023-10-01T10:19:32.401Z,48.40
2023-10-01T10:20:59.121Z,47.81
2023-10-01T10:22:10.642Z,48.08
2023-10-01T10:23:17.581Z,46.94
2023-10-01T10:24:29.940Z,47.89
2023-10-01T10:25:32.710Z,47.73
2023-10-01T10:26:58.183Z,47.56
2023-10-01T10:28:07.786Z,48.29
2023-10-01T10:29:14.024Z,47.36
2023-10-01T10:30:20.960Z,47.66
2023-10-01T10:31:35.088Z,48.57
2023-10-01T10:32:46.105Z,49.00
2023-10-01T10:34:31.043Z,49.00
2023-10-01T10:35:41.210Z,48.74
2023-10-01T10:36:55.698Z,48.69
2023-10-01T10:37:58.920Z,48.96
2023-10-01T10:39:01.819Z,49.08
2023-10-01T10:40:14.900Z,49.19
2023-10-01T10:41:21.010Z,49.18
2023-10-01T10:42:30.641Z,49.80
2023-10-01T10:43:37.500Z,50.25
2023-10-01T10:45:22.592Z,49.19
2023-10-01T10:46:26.727Z,48.93
2023-10-01T10:47:29.505Z,48.67
2023-10-01T10:49:01.604Z,49.20
2023-10-01T10:50:12.726Z,49.15
2023-10-01T10:51:45.326Z,49.62
2023-10-01T10:52:51.364Z,48.76
2023-10-01T10:53:59.473Z,49.01
2023-10-01T10:55:19.236Z,49.15
2023-10-01T10:56:36.700Z,48.53
2023-10-01T10:57:49.527Z,48.59
2023-10-01T10:59:13.484Z,49.19
2023-10-01T11:00:26.224Z,48.69
2023-10-01T11:01:44.657Z,48.93
2023-10-01T11:02:54.932Z,49.16
2023-10-01T11:03:59.322Z,48.03
2023-10-01T11:05:07.387Z,46.87
2023-10-01T11:06:24.922Z,46.52
2023-10-01T11:07:37.013Z,45.88
2023-10-01T11:08:39.905Z,45.92
2023-10-01T11:09:43.204Z,46.24
2023-10-01T11:10:46.792Z,46.64
2023-10-01T11:11:51.043Z,46.73
2023-10-01T11:12:56.041Z,46.84
2023-10-01T11:14:02.278Z,46.83
2023-10-01T11:15:24.816Z,47.05
2023-10-01T11:16:40.959Z,47.49
2023-10-01T11:17:44.082Z,47.98
2023-10-01T11:18:49.052Z,48.43
2023-10-01T11:19:59.577Z,48.21
2023-10-01T11:21:03.144Z,48.61
2023-10-01T11:22:07.972Z,48.29
2023-10-01T11:23:11.080Z,47.98
2023-10-01T11:24:18.096Z,46.79
2023-10-01T11:25:20.902Z,46.63
2023-10-01T11:26:31.141Z,47.29
2023-10-01T11:27:46.345Z,47.57
2023-10-01T11:28:49.259Z,46.74
2023-10-01T11:29:59.557Z,46.80
2023-10-01T11:31:18.767Z,46.85
2023-10-01T11:32:42.383Z,46.79
2023-10-01T11:33:49.300Z,47.04
2023-10-01T11:34:57.343Z,47.08
2023-10-01T11:36:09.847Z,47.38
2023-10-01T11:37:19.655Z,46.13
2023-10-01T11:38:22.707Z,46.04
2023-10-01T11:39:39.612Z,46.30
2023-10-01T11:41:02.411Z,46.66
2023-10-01T11:42:21.324Z,45.94
2023-10-01T11:43:29.199Z,46.11
2023-10-01T11:44:37.408Z,46.08
2023-10-01T11:45:47.328Z,45.81
2023-10-01T11:46:58.893Z,46.03
2023-10-01T11:48:07.805Z,46.34
2023-10-01T11:49:12.004Z,47.31
2023-10-01T11:50:15.071Z,47.53
2023-10-01T11:51:28.209Z,47.55
2023-10-01T11:52:31.131Z,48.02
2023-10-01T11:53:57.062Z,48.28
2023-10-01T11:55:00.130Z,48.28
2023-10-01T11:56:03.642Z,48.10
2023-10-01T11:57:07.323Z,47.73
2023-10-01T11:58:17.530Z,47.70
2023-10-01T11:59:20.857Z,47.99
2023-10-01T12:00:43.084Z,47.77
2023-10-01T12:01:51.485Z,47.87
2023-10-01T12:02:59.828Z,48.83
2023-10-01T12:04:02.934Z,48.40
2023-10-01T12:05:07.772Z,48.59
2023-10-01T12:06:10.899Z,48.99
2023-10-01T12:07:18.396Z,49.03
2023-10-01T12:08:36.240Z,48.78
2023-10-01T12:09:41.637Z,48.92
2023-10-01T12:10:45.899Z,48.27
2023-10-01T12:12:05.229Z,48.89
2023-10-01T12:13:09.238Z,48.91
2023-10-01T12:14:19.228Z,48.75
2023-10-01T12:15:57.894Z,48.73
2023-10-01T12:17:02.512Z,49.07
2023-10-01T12:18:09.676Z,48.87
2023-10-01T12:19:25.589Z,49.82
2023-10-01T12:20:31.906Z,49.83
2023-10-01T12:21:35.295Z,50.18
2023-10-01T12:22:38.077Z,50.23
2023-10-01T12:23:50.660Z,48.52
2023-10-01T12:24:58.281Z,48.54
2023-10-01T12:26:03.577Z,49.67
2023-10-01T12:27:08.855Z,50.14
2023-10-01T12:28:16.850Z,51.22
2023-10-01T12:29:19.912Z,50.44
2023-10-01T12:30:31.782Z,50.55
2023-10-01T12:31:35.190Z,50.67
2023-10-01T12:32:49.472Z,51.11
2023-10-01T12:34:00.228Z,50.63
2023-10-01T12:35:19.758Z,50.75
2023-10-01T12:36:41.771Z,51.01
2023-10-01T12:37:44.664Z,51.46
2023-10-01T12:38:47.944Z,51.81
2023-10-01T12:39:52.147Z,52.86
2023-10-01T12:40:55.333Z,52.38
2023-10-01T12:41:58.580Z,52.01
2023-10-01T12:43:26.208Z,51.66
2023-10-01T12:44:29.988Z,53.03
2023-10-01T12:45:33.042Z,51.69
2023-10-01T12:46:52.859Z,51.95
2023-10-01T12:47:56.554Z,51.37
2023-10-01T12:49:28.806Z,50.97
2023-10-01T12:50:31.469Z,51.60
2023-10-01T12:51:35.402Z,51.44
2023-10-01T12:52:38.773Z,51.21
2023-10-01T12:53:51.116Z,50.86
2023-10-01T12:54:59.543Z,51.82
2023-10-01T12:56:06.230Z,51.17
2023-10-01T12:57:19.916Z,50.47
2023-10-01T12:58:49.762Z,50.59
2023-10-01T13:00:12.764Z,51.10
2023-10-01T13:01:35.851Z,51.29
2023-10-01T13:02:50.449Z,51.91
2023-10-01T13:03:53.350Z,51.53
2023-10-01T13:05:16.364Z,51.29
2023-10-01T13:06:19.257Z,50.99
2023-10-01T13:07:37.013Z,51.50
2023-10-01T13:08:42.673Z,52.34
2023-10-01T13:09:45.616Z,52.78
2023-10-01T13:10:52.637Z,53.29
2023-10-01T13:12:01.290Z,52.46
2023-10-01T13:13:07.233Z,52.47
2023-10-01T13:14:27.316Z,53.05
2023-10-01T13:15:42.543Z,52.89
2023-10-01T13:16:51.860Z,53.98
2023-10-01T13:18:01.935Z,53.18
2023-10-01T13:19:19.220Z,52.94
2023-10-01T13:20:27.105Z,53.08
2023-10-01T13:21:42.730Z,52.25
2023-10-01T13:23:00.789Z,52.35
2023-10-01T13:24:12.065Z,52.82
2023-10-01T13:25:20.736Z,52.40
2023-10-01T13:26:33.099Z,53.05
2023-10-01T13:27:40.380Z,53.63
2023-10-01T13:28:58.198Z,52.32
2023-10-01T13:30:20.120Z,53.09
2023-10-01T13:31:31.711Z,53.54
2023-10-01T13:32:36.643Z,52.53
2023-10-01T13:34:07.937Z,52.62
2023-10-01T13:35:31.394Z,52.61
2023-10-01T13:36:54.021Z,52.93
2023-10-01T13:38:16.538Z,53.42
2023-10-01T13:39:38.262Z,55.01
2023-10-01T13:41:01.210Z,55.84
2023-10-01T13:42:24.361Z,54.49
2023-10-01T13:43:45.820Z,54.19
2023-10-01T13:45:07.708Z,53.83
2023-10-01T13:46:29.604Z,53.94
2023-10-01T13:47:51.085Z,53.86
2023-10-01T13:49:12.715Z,54.24
2023-10-01T13:50:34.514Z,54.63
2023-10-01T13:51:56.288Z,54.70
2023-10-01T13:53:18.105Z,54.04
2023-10-01T13:54:39.393Z,53.48
2023-10-01T13:56:08.359Z,53.31
2023-10-01T13:57:30.066Z,55.15
2023-10-01T13:58:52.449Z,54.42
2023-10-01T14:00:14.152Z,54.30
2023-10-01T14:01:36.133Z,54.99
2023-10-01T14:02:57.332Z,53.95
2023-10-01T14:04:18.397Z,54.28
2023-10-01T14:05:40.108Z,54.95
2023-10-01T14:07:02.143Z,55.67
2023-10-01T14:08:23.834Z,56.15
2023-10-01T14:09:46.867Z,56.44
2023-10-01T14:10:54.598Z,56.62
2023-10-01T14:11:58.104Z,56.48
2023-10-01T14:13:04.550Z,56.26
2023-10-01T14:14:09.632Z,56.29
2023-10-01T14:15:23.605Z,56.84
2023-10-01T14:16:26.721Z,56.88
2023-10-01T14:17:29.869Z,55.84
2023-10-01T14:18:37.460Z,55.06
2023-10-01T14:19:46.699Z,54.78
2023-10-01T14:20:49.634Z,54.70
2023-10-01T14:21:53.596Z,54.84
2023-10-01T14:23:02.242Z,55.72
2023-10-01T14:24:25.901Z,55.85
2023-10-01T14:25:29.337Z,55.58
2023-10-01T14:26:35.163Z,56.39
2023-10-01T14:27:42.083Z,55.95
2023-10-01T14:28:48.162Z,55.54
2023-10-01T14:30:24.169Z,55.60
2023-10-01T14:31:42.980Z,54.73
2023-10-01T14:32:52.759Z,54.47
2023-10-01T14:33:57.247Z,54.13
2023-10-01T14:35:00.074Z,54.42
2023-10-01T14:36:06.532Z,54.32
2023-10-01T14:37:15.778Z,54.17
2023-10-01T14:38:22.530Z,54.49
2023-10-01T14:39:32.258Z,55.33
2023-10-01T14:40:36.247Z,55.28
2023-10-01T14:41:43.292Z,55.06
2023-10-01T14:42:46.682Z,55.56
2023-10-01T14:43:55.892Z,56.67
2023-10-01T14:45:06.279Z,56.68
2023-10-01T14:46:15.144Z,56.68
2023-10-01T14:47:19.322Z,56.36
2023-10-01T14:48:24.248Z,57.51
2023-10-01T14:49:27.276Z,57.51
2023-10-01T14:50:30.878Z,58.22
2023-10-01T14:51:38.363Z,58.46
2023-10-01T14:52:42.433Z,58.88
2023-10-01T14:53:45.419Z,58.47
2023-10-01T14:54:48.630Z,59.34
2023-10-01T14:55:56.246Z,59.84
2023-10-01T14:57:00.296Z,60.71